sensor_id;sensor_type;location;lat;lon;timestamp;P1;durP1;ratioP1;P2;durP2;ratioP2
33814;SDS011;20121;51.910;8.406;2023-06-22T00:02:15;5.13;;;3.08;;
33814;SDS011;20121;51.910;8.406;2023-06-22T00:04:41;3.60;;;2.97;;
33814;SDS011;20121;51.910;8.406;2023-06-22T00:07:07;4.25;;;3.17;;
33814;SDS011;20121;51.910;8.406;2023-06-22T00:09:33;5.50;;;3.25;;
33814;SDS011;20121;51.910;8.406;2023-06-22T00:11:59;3.63;;;3.03;;
33814;SDS011;20121;51.910;8.406;2023-06-22T00:14:25;3.17;;;2.87;;
33814;SDS011;20121;51.910;8.406;2023-06-22T00:16:50;5.30;;;2.90;;
33814;SDS011;20121;51.910;8.406;2023-06-22T00:19:22;3.80;;;3.10;;
33814;SDS011;20121;51.910;8.406;2023-06-22T00:21:50;3.85;;;3.08;;
33814;SDS011;20121;51.910;8.406;2023-06-22T00:24:18;3.47;;;3.17;;
33814;SDS011;20121;51.910;8.406;2023-06-22T00:26:45;5.45;;;3.60;;
33814;SDS011;20121;51.910;8.406;2023-06-22T00:29:10;3.33;;;3.03;;
33814;SDS011;20121;51.910;8.406;2023-06-22T00:31:36;2.73;;;2.53;;
33814;SDS011;20121;51.910;8.406;2023-06-22T00:34:02;3.13;;;2.60;;
33814;SDS011;20121;51.910;8.406;2023-06-22T00:36:27;3.67;;;3.07;;
33814;SDS011;20121;51.910;8.406;2023-06-22T00:38:53;3.30;;;3.00;;
33814;SDS011;20121;51.910;8.406;2023-06-22T00:41:19;2.80;;;2.60;;
33814;SDS011;20121;51.910;8.406;2023-06-22T00:43:44;4.93;;;3.17;;
33814;SDS011;20121;51.910;8.406;2023-06-22T00:46:10;4.57;;;2.93;;
33814;SDS011;20121;51.910;8.406;2023-06-22T00:48:36;3.85;;;3.30;;
33814;SDS011;20121;51.910;8.406;2023-06-22T00:51:02;4.80;;;3.20;;
33814;SDS011;20121;51.910;8.406;2023-06-22T00:53:28;5.15;;;3.42;;
33814;SDS011;20121;51.910;8.406;2023-06-22T00:55:53;4.00;;;3.60;;
33814;SDS011;20121;51.910;8.406;2023-06-22T00:58:20;4.90;;;3.10;;
33814;SDS011;20121;51.910;8.406;2023-06-22T01:00:46;4.45;;;2.95;;
33814;SDS011;20121;51.910;8.406;2023-06-22T01:03:13;4.15;;;3.30;;
33814;SDS011;20121;51.910;8.406;2023-06-22T01:05:39;5.55;;;3.00;;
33814;SDS011;20121;51.910;8.406;2023-06-22T01:08:12;3.40;;;3.10;;
33814;SDS011;20121;51.910;8.406;2023-06-22T01:11:04;4.38;;;3.22;;
33814;SDS011;20121;51.910;8.406;2023-06-22T01:13:48;2.95;;;2.47;;
33814;SDS011;20121;51.910;8.406;2023-06-22T01:16:20;4.63;;;3.00;;
33814;SDS011;20121;51.910;8.406;2023-06-22T01:18:51;5.57;;;3.30;;
33814;SDS011;20121;51.910;8.406;2023-06-22T01:21:20;3.60;;;3.17;;
33814;SDS011;20121;51.910;8.406;2023-06-22T01:23:51;4.70;;;3.38;;
33814;SDS011;20121;51.910;8.406;2023-06-22T01:29:15;3.80;;;3.50;;
33814;SDS011;20121;51.910;8.406;2023-06-22T01:31:42;3.70;;;3.40;;
33814;SDS011;20121;51.910;8.406;2023-06-22T01:34:10;3.88;;;3.05;;
33814;SDS011;20121;51.910;8.406;2023-06-22T01:36:37;4.90;;;3.22;;
33814;SDS011;20121;51.910;8.406;2023-06-22T01:39:04;4.30;;;2.60;;
33814;SDS011;20121;51.910;8.406;2023-06-22T01:41:34;3.20;;;2.95;;
33814;SDS011;20121;51.910;8.406;2023-06-22T01:44:02;3.65;;;3.35;;
33814;SDS011;20121;51.910;8.406;2023-06-22T01:46:36;3.53;;;3.22;;
33814;SDS011;20121;51.910;8.406;2023-06-22T01:49:03;4.18;;;3.67;;
33814;SDS011;20121;51.910;8.406;2023-06-22T01:51:30;3.83;;;3.28;;
33814;SDS011;20121;51.910;8.406;2023-06-22T01:53:56;4.15;;;2.70;;
33814;SDS011;20121;51.910;8.406;2023-06-22T01:56:21;8.37;;;3.73;;
33814;SDS011;20121;51.910;8.406;2023-06-22T01:58:58;3.87;;;2.97;;
33814;SDS011;20121;51.910;8.406;2023-06-22T02:01:44;3.95;;;3.63;;
33814;SDS011;20121;51.910;8.406;2023-06-22T02:04:20;4.22;;;3.45;;
33814;SDS011;20121;51.910;8.406;2023-06-22T02:06:50;4.93;;;3.65;;
33814;SDS011;20121;51.910;8.406;2023-06-22T02:09:20;5.68;;;3.95;;
33814;SDS011;20121;51.910;8.406;2023-06-22T02:11:48;3.92;;;3.00;;
33814;SDS011;20121;51.910;8.406;2023-06-22T02:14:19;3.53;;;3.22;;
33814;SDS011;20121;51.910;8.406;2023-06-22T02:16:46;3.42;;;3.13;;
33814;SDS011;20121;51.910;8.406;2023-06-22T02:19:12;4.73;;;3.37;;
33814;SDS011;20121;51.910;8.406;2023-06-22T02:21:41;3.70;;;3.40;;
33814;SDS011;20121;51.910;8.406;2023-06-22T02:24:06;4.40;;;3.10;;
33814;SDS011;20121;51.910;8.406;2023-06-22T02:26:32;3.43;;;3.13;;
33814;SDS011;20121;51.910;8.406;2023-06-22T02:28:58;3.73;;;3.43;;
33814;SDS011;20121;51.910;8.406;2023-06-22T02:31:23;6.00;;;4.23;;
33814;SDS011;20121;51.910;8.406;2023-06-22T02:33:55;4.88;;;3.05;;
33814;SDS011;20121;51.910;8.406;2023-06-22T02:36:22;4.82;;;3.60;;
33814;SDS011;20121;51.910;8.406;2023-06-22T02:38:49;5.22;;;3.70;;
33814;SDS011;20121;51.910;8.406;2023-06-22T02:41:15;4.32;;;3.70;;
33814;SDS011;20121;51.910;8.406;2023-06-22T02:43:44;7.13;;;4.30;;
33814;SDS011;20121;51.910;8.406;2023-06-22T02:46:10;6.32;;;4.45;;
33814;SDS011;20121;51.910;8.406;2023-06-22T02:48:37;5.32;;;4.60;;
33814;SDS011;20121;51.910;8.406;2023-06-22T02:51:04;7.32;;;5.18;;
33814;SDS011;20121;51.910;8.406;2023-06-22T02:53:29;5.67;;;3.53;;
33814;SDS011;20121;51.910;8.406;2023-06-22T02:55:55;4.53;;;4.00;;
33814;SDS011;20121;51.910;8.406;2023-06-22T02:58:21;4.40;;;3.67;;
33814;SDS011;20121;51.910;8.406;2023-06-22T03:00:46;6.50;;;4.43;;
33814;SDS011;20121;51.910;8.406;2023-06-22T03:03:12;4.57;;;3.63;;
33814;SDS011;20121;51.910;8.406;2023-06-22T03:05:37;5.37;;;3.97;;
33814;SDS011;20121;51.910;8.406;2023-06-22T03:08:05;4.68;;;3.97;;
33814;SDS011;20121;51.910;8.406;2023-06-22T03:10:30;6.03;;;4.03;;
33814;SDS011;20121;51.910;8.406;2023-06-22T03:12:56;5.50;;;4.13;;
33814;SDS011;20121;51.910;8.406;2023-06-22T03:15:22;5.47;;;4.20;;
33814;SDS011;20121;51.910;8.406;2023-06-22T03:17:47;3.73;;;3.30;;
33814;SDS011;20121;51.910;8.406;2023-06-22T03:20:13;6.17;;;3.97;;
33814;SDS011;20121;51.910;8.406;2023-06-22T03:22:39;9.50;;;5.20;;
33814;SDS011;20121;51.910;8.406;2023-06-22T03:25:06;3.88;;;3.42;;
33814;SDS011;20121;51.910;8.406;2023-06-22T03:27:41;4.45;;;3.53;;
33814;SDS011;20121;51.910;8.406;2023-06-22T03:30:09;6.65;;;4.55;;
33814;SDS011;20121;51.910;8.406;2023-06-22T03:32:36;6.10;;;4.05;;
33814;SDS011;20121;51.910;8.406;2023-06-22T03:35:01;6.60;;;4.30;;
33814;SDS011;20121;51.910;8.406;2023-06-22T03:37:27;4.47;;;3.87;;
33814;SDS011;20121;51.910;8.406;2023-06-22T03:39:54;7.60;;;4.85;;
33814;SDS011;20121;51.910;8.406;2023-06-22T03:42:19;6.63;;;4.50;;
33814;SDS011;20121;51.910;8.406;2023-06-22T03:44:45;7.10;;;4.60;;
33814;SDS011;20121;51.910;8.406;2023-06-22T03:47:11;4.80;;;3.72;;
33814;SDS011;20121;51.910;8.406;2023-06-22T03:49:37;5.57;;;4.28;;
33814;SDS011;20121;51.910;8.406;2023-06-22T03:52:03;4.10;;;3.70;;
33814;SDS011;20121;51.910;8.406;2023-06-22T03:54:29;4.68;;;3.58;;
33814;SDS011;20121;51.910;8.406;2023-06-22T03:56:58;6.95;;;5.22;;
33814;SDS011;20121;51.910;8.406;2023-06-22T03:59:24;7.07;;;3.85;;
33814;SDS011;20121;51.910;8.406;2023-06-22T04:01:50;7.05;;;3.83;;
33814;SDS011;20121;51.910;8.406;2023-06-22T04:04:19;8.70;;;5.03;;
33814;SDS011;20121;51.910;8.406;2023-06-22T04:06:45;8.05;;;4.25;;
33814;SDS011;20121;51.910;8.406;2023-06-22T04:09:10;10.60;;;4.53;;
33814;SDS011;20121;51.910;8.406;2023-06-22T04:11:36;7.03;;;4.47;;
33814;SDS011;20121;51.910;8.406;2023-06-22T04:14:02;6.47;;;4.80;;
33814;SDS011;20121;51.910;8.406;2023-06-22T04:16:28;5.53;;;3.70;;
33814;SDS011;20121;51.910;8.406;2023-06-22T04:18:53;5.57;;;4.37;;
33814;SDS011;20121;51.910;8.406;2023-06-22T04:21:19;7.67;;;4.70;;
33814;SDS011;20121;51.910;8.406;2023-06-22T04:23:45;7.30;;;5.27;;
33814;SDS011;20121;51.910;8.406;2023-06-22T04:26:11;5.45;;;4.45;;
33814;SDS011;20121;51.910;8.406;2023-06-22T04:28:38;5.30;;;4.28;;
33814;SDS011;20121;51.910;8.406;2023-06-22T04:31:04;5.87;;;5.20;;
33814;SDS011;20121;51.910;8.406;2023-06-22T04:33:30;6.27;;;4.90;;
33814;SDS011;20121;51.910;8.406;2023-06-22T04:35:56;8.52;;;4.82;;
33814;SDS011;20121;51.910;8.406;2023-06-22T04:38:22;6.35;;;4.60;;
33814;SDS011;20121;51.910;8.406;2023-06-22T04:40:49;7.10;;;5.38;;
33814;SDS011;20121;51.910;8.406;2023-06-22T04:43:15;7.18;;;4.80;;
33814;SDS011;20121;51.910;8.406;2023-06-22T04:45:41;5.50;;;3.80;;
33814;SDS011;20121;51.910;8.406;2023-06-22T04:48:06;9.43;;;4.60;;
33814;SDS011;20121;51.910;8.406;2023-06-22T04:50:34;4.80;;;4.30;;
33814;SDS011;20121;51.910;8.406;2023-06-22T04:53:02;7.20;;;4.18;;
33814;SDS011;20121;51.910;8.406;2023-06-22T04:55:30;8.07;;;4.50;;
33814;SDS011;20121;51.910;8.406;2023-06-22T04:57:56;10.10;;;5.25;;
33814;SDS011;20121;51.910;8.406;2023-06-22T05:00:29;6.82;;;5.20;;
33814;SDS011;20121;51.910;8.406;2023-06-22T05:02:56;6.30;;;5.25;;
33814;SDS011;20121;51.910;8.406;2023-06-22T05:05:23;7.07;;;5.07;;
33814;SDS011;20121;51.910;8.406;2023-06-22T05:07:50;10.20;;;5.35;;
33814;SDS011;20121;51.910;8.406;2023-06-22T05:10:18;6.43;;;4.53;;
33814;SDS011;20121;51.910;8.406;2023-06-22T05:12:45;9.15;;;5.53;;
33814;SDS011;20121;51.910;8.406;2023-06-22T05:15:11;6.90;;;3.67;;
33814;SDS011;20121;51.910;8.406;2023-06-22T05:17:37;7.77;;;4.10;;
33814;SDS011;20121;51.910;8.406;2023-06-22T05:20:08;8.88;;;5.78;;
33814;SDS011;20121;51.910;8.406;2023-06-22T05:22:35;6.40;;;4.72;;
33814;SDS011;20121;51.910;8.406;2023-06-22T05:25:01;7.93;;;4.97;;
33814;SDS011;20121;51.910;8.406;2023-06-22T05:27:27;5.60;;;4.13;;
33814;SDS011;20121;51.910;8.406;2023-06-22T05:29:52;5.33;;;4.33;;
33814;SDS011;20121;51.910;8.406;2023-06-22T05:32:18;7.53;;;4.50;;
33814;SDS011;20121;51.910;8.406;2023-06-22T05:34:44;7.90;;;5.23;;
33814;SDS011;20121;51.910;8.406;2023-06-22T05:37:09;4.83;;;3.77;;
33814;SDS011;20121;51.910;8.406;2023-06-22T05:39:35;6.53;;;4.80;;
33814;SDS011;20121;51.910;8.406;2023-06-22T05:42:04;6.95;;;5.18;;
33814;SDS011;20121;51.910;8.406;2023-06-22T05:44:33;6.53;;;4.57;;
33814;SDS011;20121;51.910;8.406;2023-06-22T05:46:58;7.37;;;4.40;;
33814;SDS011;20121;51.910;8.406;2023-06-22T05:49:24;9.03;;;5.90;;
33814;SDS011;20121;51.910;8.406;2023-06-22T05:51:54;7.40;;;4.65;;
33814;SDS011;20121;51.910;8.406;2023-06-22T05:54:21;6.63;;;4.65;;
33814;SDS011;20121;51.910;8.406;2023-06-22T05:56:47;5.40;;;4.90;;
33814;SDS011;20121;51.910;8.406;2023-06-22T05:59:12;5.07;;;3.90;;
33814;SDS011;20121;51.910;8.406;2023-06-22T06:01:38;5.93;;;4.50;;
33814;SDS011;20121;51.910;8.406;2023-06-22T06:04:05;4.05;;;3.65;;
33814;SDS011;20121;51.910;8.406;2023-06-22T06:06:33;7.80;;;4.75;;
33814;SDS011;20121;51.910;8.406;2023-06-22T06:09:02;12.85;;;5.47;;
33814;SDS011;20121;51.910;8.406;2023-06-22T06:11:32;7.57;;;4.43;;
33814;SDS011;20121;51.910;8.406;2023-06-22T06:13:58;4.70;;;4.10;;
33814;SDS011;20121;51.910;8.406;2023-06-22T06:16:24;5.97;;;4.53;;
33814;SDS011;20121;51.910;8.406;2023-06-22T06:18:50;3.17;;;2.87;;
33814;SDS011;20121;51.910;8.406;2023-06-22T06:21:16;5.83;;;4.13;;
33814;SDS011;20121;51.910;8.406;2023-06-22T06:23:41;3.85;;;3.55;;
33814;SDS011;20121;51.910;8.406;2023-06-22T06:26:07;5.97;;;4.60;;
33814;SDS011;20121;51.910;8.406;2023-06-22T06:28:33;6.33;;;3.90;;
33814;SDS011;20121;51.910;8.406;2023-06-22T06:30:59;5.15;;;3.25;;
33814;SDS011;20121;51.910;8.406;2023-06-22T06:33:25;7.37;;;4.20;;
33814;SDS011;20121;51.910;8.406;2023-06-22T06:35:51;4.70;;;4.10;;
33814;SDS011;20121;51.910;8.406;2023-06-22T06:38:16;3.90;;;3.17;;
33814;SDS011;20121;51.910;8.406;2023-06-22T06:40:42;4.40;;;3.93;;
33814;SDS011;20121;51.910;8.406;2023-06-22T06:43:08;3.90;;;3.50;;
33814;SDS011;20121;51.910;8.406;2023-06-22T06:45:33;4.50;;;4.03;;
33814;SDS011;20121;51.910;8.406;2023-06-22T06:47:59;10.25;;;5.80;;
33814;SDS011;20121;51.910;8.406;2023-06-22T06:50:25;6.00;;;4.13;;
33814;SDS011;20121;51.910;8.406;2023-06-22T06:52:51;3.83;;;3.43;;
33814;SDS011;20121;51.910;8.406;2023-06-22T06:55:16;4.27;;;3.27;;
33814;SDS011;20121;51.910;8.406;2023-06-22T06:57:42;3.97;;;3.57;;
33814;SDS011;20121;51.910;8.406;2023-06-22T07:00:11;4.27;;;3.80;;
33814;SDS011;20121;51.910;8.406;2023-06-22T07:02:42;4.40;;;3.60;;
33814;SDS011;20121;51.910;8.406;2023-06-22T07:05:09;4.80;;;3.90;;
33814;SDS011;20121;51.910;8.406;2023-06-22T07:07:36;5.25;;;4.03;;
33814;SDS011;20121;51.910;8.406;2023-06-22T07:10:02;5.60;;;4.35;;
33814;SDS011;20121;51.910;8.406;2023-06-22T07:12:29;4.72;;;3.60;;
33814;SDS011;20121;51.910;8.406;2023-06-22T07:15:03;7.10;;;3.50;;
33814;SDS011;20121;51.910;8.406;2023-06-22T07:17:30;4.05;;;3.15;;
33814;SDS011;20121;51.910;8.406;2023-06-22T07:19:56;6.43;;;4.00;;
33814;SDS011;20121;51.910;8.406;2023-06-22T07:22:21;5.17;;;4.30;;
33814;SDS011;20121;51.910;8.406;2023-06-22T07:24:47;5.33;;;4.23;;
33814;SDS011;20121;51.910;8.406;2023-06-22T07:27:14;5.75;;;4.03;;
33814;SDS011;20121;51.910;8.406;2023-06-22T07:29:43;5.80;;;3.40;;
33814;SDS011;20121;51.910;8.406;2023-06-22T07:32:08;4.20;;;3.80;;
33814;SDS011;20121;51.910;8.406;2023-06-22T07:34:34;5.10;;;3.97;;
33814;SDS011;20121;51.910;8.406;2023-06-22T07:36:59;5.40;;;4.53;;
33814;SDS011;20121;51.910;8.406;2023-06-22T07:39:25;7.77;;;4.23;;
33814;SDS011;20121;51.910;8.406;2023-06-22T07:41:51;5.73;;;4.50;;
33814;SDS011;20121;51.910;8.406;2023-06-22T07:44:18;8.02;;;4.78;;
33814;SDS011;20121;51.910;8.406;2023-06-22T07:46:44;5.63;;;3.77;;
33814;SDS011;20121;51.910;8.406;2023-06-22T07:49:09;8.80;;;4.30;;
33814;SDS011;20121;51.910;8.406;2023-06-22T07:51:35;5.73;;;4.30;;
33814;SDS011;20121;51.910;8.406;2023-06-22T07:54:01;5.70;;;4.60;;
33814;SDS011;20121;51.910;8.406;2023-06-22T07:56:26;5.07;;;4.20;;
33814;SDS011;20121;51.910;8.406;2023-06-22T07:58:52;6.60;;;4.60;;
33814;SDS011;20121;51.910;8.406;2023-06-22T08:01:18;4.97;;;3.63;;
33814;SDS011;20121;51.910;8.406;2023-06-22T08:03:46;4.30;;;3.42;;
33814;SDS011;20121;51.910;8.406;2023-06-22T08:06:15;8.05;;;4.40;;
33814;SDS011;20121;51.910;8.406;2023-06-22T08:08:41;4.73;;;4.10;;
33814;SDS011;20121;51.910;8.406;2023-06-22T08:11:07;8.02;;;4.40;;
33814;SDS011;20121;51.910;8.406;2023-06-22T08:13:33;8.55;;;5.40;;
33814;SDS011;20121;51.910;8.406;2023-06-22T08:15:59;10.07;;;5.13;;
33814;SDS011;20121;51.910;8.406;2023-06-22T08:18:25;4.90;;;4.00;;
33814;SDS011;20121;51.910;8.406;2023-06-22T08:20:50;9.67;;;5.63;;
33814;SDS011;20121;51.910;8.406;2023-06-22T08:23:16;5.00;;;4.47;;
33814;SDS011;20121;51.910;8.406;2023-06-22T08:25:42;5.67;;;4.10;;
33814;SDS011;20121;51.910;8.406;2023-06-22T08:28:07;5.13;;;4.60;;
33814;SDS011;20121;51.910;8.406;2023-06-22T08:30:33;4.50;;;4.10;;
33814;SDS011;20121;51.910;8.406;2023-06-22T08:32:59;4.83;;;4.30;;
33814;SDS011;20121;51.910;8.406;2023-06-22T08:35:24;8.33;;;4.90;;
33814;SDS011;20121;51.910;8.406;2023-06-22T08:37:50;6.67;;;5.27;;
33814;SDS011;20121;51.910;8.406;2023-06-22T08:40:22;4.57;;;3.88;;
33814;SDS011;20121;51.910;8.406;2023-06-22T08:42:49;6.28;;;4.28;;
33814;SDS011;20121;51.910;8.406;2023-06-22T08:45:15;4.23;;;3.80;;
33814;SDS011;20121;51.910;8.406;2023-06-22T08:47:41;3.40;;;3.10;;
33814;SDS011;20121;51.910;8.406;2023-06-22T08:50:08;4.57;;;3.47;;
33814;SDS011;20121;51.910;8.406;2023-06-22T08:52:34;3.63;;;3.33;;
33814;SDS011;20121;51.910;8.406;2023-06-22T08:55:00;3.28;;;2.95;;
33814;SDS011;20121;51.910;8.406;2023-06-22T08:57:26;4.80;;;3.33;;
33814;SDS011;20121;51.910;8.406;2023-06-22T08:59:52;3.63;;;3.08;;
33814;SDS011;20121;51.910;8.406;2023-06-22T09:02:18;4.70;;;3.13;;
33814;SDS011;20121;51.910;8.406;2023-06-22T09:04:45;3.70;;;3.25;;
33814;SDS011;20121;51.910;8.406;2023-06-22T09:07:11;3.58;;;3.15;;
33814;SDS011;20121;51.910;8.406;2023-06-22T09:09:37;3.63;;;3.10;;
33814;SDS011;20121;51.910;8.406;2023-06-22T09:12:03;9.90;;;3.57;;
33814;SDS011;20121;51.910;8.406;2023-06-22T09:14:29;5.07;;;3.30;;
33814;SDS011;20121;51.910;8.406;2023-06-22T09:16:54;5.70;;;3.70;;
33814;SDS011;20121;51.910;8.406;2023-06-22T09:19:20;4.20;;;3.80;;
33814;SDS011;20121;51.910;8.406;2023-06-22T09:21:45;5.57;;;4.17;;
33814;SDS011;20121;51.910;8.406;2023-06-22T09:24:11;4.60;;;3.60;;
33814;SDS011;20121;51.910;8.406;2023-06-22T09:26:37;3.47;;;3.17;;
33814;SDS011;20121;51.910;8.406;2023-06-22T09:29:04;4.83;;;4.00;;
33814;SDS011;20121;51.910;8.406;2023-06-22T09:31:30;4.80;;;3.45;;
33814;SDS011;20121;51.910;8.406;2023-06-22T09:33:56;4.37;;;3.23;;
33814;SDS011;20121;51.910;8.406;2023-06-22T09:36:22;4.07;;;3.10;;
33814;SDS011;20121;51.910;8.406;2023-06-22T09:38:48;4.93;;;2.90;;
33814;SDS011;20121;51.910;8.406;2023-06-22T09:41:20;4.22;;;3.78;;
33814;SDS011;20121;51.910;8.406;2023-06-22T09:43:45;3.20;;;2.90;;
33814;SDS011;20121;51.910;8.406;2023-06-22T09:46:11;4.20;;;3.47;;
33814;SDS011;20121;51.910;8.406;2023-06-22T09:48:36;3.63;;;3.33;;
33814;SDS011;20121;51.910;8.406;2023-06-22T09:51:02;4.20;;;3.63;;
33814;SDS011;20121;51.910;8.406;2023-06-22T09:53:27;5.03;;;3.77;;
33814;SDS011;20121;51.910;8.406;2023-06-22T09:55:53;3.70;;;3.40;;
33814;SDS011;20121;51.910;8.406;2023-06-22T09:58:19;4.53;;;4.07;;
33814;SDS011;20121;51.910;8.406;2023-06-22T10:00:44;4.57;;;4.17;;
33814;SDS011;20121;51.910;8.406;2023-06-22T10:03:10;5.30;;;3.60;;
33814;SDS011;20121;51.910;8.406;2023-06-22T10:05:36;4.37;;;3.70;;
33814;SDS011;20121;51.910;8.406;2023-06-22T10:08:01;4.10;;;3.80;;
33814;SDS011;20121;51.910;8.406;2023-06-22T10:10:27;4.83;;;4.30;;
33814;SDS011;20121;51.910;8.406;2023-06-22T10:12:56;5.00;;;4.50;;
33814;SDS011;20121;51.910;8.406;2023-06-22T10:15:23;5.47;;;4.90;;
33814;SDS011;20121;51.910;8.406;2023-06-22T10:17:48;5.57;;;4.50;;
33814;SDS011;20121;51.910;8.406;2023-06-22T10:20:14;5.50;;;4.70;;
33814;SDS011;20121;51.910;8.406;2023-06-22T10:22:43;5.30;;;4.80;;
33814;SDS011;20121;51.910;8.406;2023-06-22T10:25:10;6.70;;;4.17;;
33814;SDS011;20121;51.910;8.406;2023-06-22T10:27:37;4.17;;;3.77;;
33814;SDS011;20121;51.910;8.406;2023-06-22T10:30:06;4.03;;;3.60;;
33814;SDS011;20121;51.910;8.406;2023-06-22T10:32:37;3.13;;;2.83;;
33814;SDS011;20121;51.910;8.406;2023-06-22T10:35:04;3.63;;;3.30;;
33814;SDS011;20121;51.910;8.406;2023-06-22T10:37:30;4.43;;;3.30;;
33814;SDS011;20121;51.910;8.406;2023-06-22T10:39:55;7.40;;;4.17;;
33814;SDS011;20121;51.910;8.406;2023-06-22T10:42:21;4.60;;;3.77;;
33814;SDS011;20121;51.910;8.406;2023-06-22T10:44:47;5.73;;;4.47;;
33814;SDS011;20121;51.910;8.406;2023-06-22T10:47:12;4.80;;;4.10;;
33814;SDS011;20121;51.910;8.406;2023-06-22T10:49:38;4.33;;;3.93;;
33814;SDS011;20121;51.910;8.406;2023-06-22T10:52:05;3.17;;;2.87;;
33814;SDS011;20121;51.910;8.406;2023-06-22T10:54:32;4.47;;;3.57;;
33814;SDS011;20121;51.910;8.406;2023-06-22T10:56:58;4.77;;;3.80;;
33814;SDS011;20121;51.910;8.406;2023-06-22T10:59:24;3.40;;;3.10;;
33814;SDS011;20121;51.910;8.406;2023-06-22T11:01:51;4.40;;;4.00;;
33814;SDS011;20121;51.910;8.406;2023-06-22T11:04:17;3.73;;;3.40;;
33814;SDS011;20121;51.910;8.406;2023-06-22T11:06:42;4.03;;;3.63;;
33814;SDS011;20121;51.910;8.406;2023-06-22T11:09:08;4.50;;;3.10;;
33814;SDS011;20121;51.910;8.406;2023-06-22T11:11:34;3.17;;;2.87;;
33814;SDS011;20121;51.910;8.406;2023-06-22T11:13:59;4.33;;;3.93;;
33814;SDS011;20121;51.910;8.406;2023-06-22T11:16:25;4.27;;;3.87;;
33814;SDS011;20121;51.910;8.406;2023-06-22T11:18:51;4.63;;;3.83;;
33814;SDS011;20121;51.910;8.406;2023-06-22T11:21:17;4.00;;;3.57;;
33814;SDS011;20121;51.910;8.406;2023-06-22T11:23:43;4.27;;;3.87;;
33814;SDS011;20121;51.910;8.406;2023-06-22T11:26:08;5.17;;;4.50;;
33814;SDS011;20121;51.910;8.406;2023-06-22T11:28:34;5.50;;;4.13;;
33814;SDS011;20121;51.910;8.406;2023-06-22T11:30:59;3.93;;;3.50;;
33814;SDS011;20121;51.910;8.406;2023-06-22T11:33:25;6.00;;;2.83;;
33814;SDS011;20121;51.910;8.406;2023-06-22T11:35:51;4.50;;;3.43;;
33814;SDS011;20121;51.910;8.406;2023-06-22T11:38:16;4.03;;;3.13;;
33814;SDS011;20121;51.910;8.406;2023-06-22T11:40:42;4.47;;;4.07;;
33814;SDS011;20121;51.910;8.406;2023-06-22T11:43:08;4.20;;;3.83;;
33814;SDS011;20121;51.910;8.406;2023-06-22T11:45:33;4.10;;;3.70;;
33814;SDS011;20121;51.910;8.406;2023-06-22T11:47:59;3.77;;;3.10;;
33814;SDS011;20121;51.910;8.406;2023-06-22T11:50:24;4.87;;;3.73;;
33814;SDS011;20121;51.910;8.406;2023-06-22T11:52:50;4.20;;;3.80;;
33814;SDS011;20121;51.910;8.406;2023-06-22T11:55:18;5.40;;;4.40;;
33814;SDS011;20121;51.910;8.406;2023-06-22T11:57:53;4.23;;;3.83;;
33814;SDS011;20121;51.910;8.406;2023-06-22T12:00:21;4.83;;;3.63;;
33814;SDS011;20121;51.910;8.406;2023-06-22T12:02:49;4.07;;;3.67;;
33814;SDS011;20121;51.910;8.406;2023-06-22T12:05:18;7.73;;;3.00;;
33814;SDS011;20121;51.910;8.406;2023-06-22T12:07:45;5.00;;;4.50;;
33814;SDS011;20121;51.910;8.406;2023-06-22T12:10:11;4.70;;;3.93;;
33814;SDS011;20121;51.910;8.406;2023-06-22T12:12:37;4.30;;;3.60;;
33814;SDS011;20121;51.910;8.406;2023-06-22T12:15:02;3.47;;;3.23;;
33814;SDS011;20121;51.910;8.406;2023-06-22T12:17:29;6.37;;;5.17;;
33814;SDS011;20121;51.910;8.406;2023-06-22T12:19:55;3.80;;;3.40;;
33814;SDS011;20121;51.910;8.406;2023-06-22T12:22:21;4.93;;;3.70;;
33814;SDS011;20121;51.910;8.406;2023-06-22T12:24:46;5.53;;;3.80;;
33814;SDS011;20121;51.910;8.406;2023-06-22T12:27:12;3.40;;;3.10;;
33814;SDS011;20121;51.910;8.406;2023-06-22T12:29:37;4.30;;;3.80;;
33814;SDS011;20121;51.910;8.406;2023-06-22T12:32:03;4.33;;;3.80;;
33814;SDS011;20121;51.910;8.406;2023-06-22T12:34:29;4.50;;;4.10;;
33814;SDS011;20121;51.910;8.406;2023-06-22T12:36:55;5.30;;;4.30;;
33814;SDS011;20121;51.910;8.406;2023-06-22T12:39:20;4.27;;;3.83;;
33814;SDS011;20121;51.910;8.406;2023-06-22T12:41:46;5.87;;;3.17;;
33814;SDS011;20121;51.910;8.406;2023-06-22T12:44:12;4.93;;;3.50;;
33814;SDS011;20121;51.910;8.406;2023-06-22T12:46:37;5.03;;;4.17;;
33814;SDS011;20121;51.910;8.406;2023-06-22T12:49:06;5.47;;;4.23;;
33814;SDS011;20121;51.910;8.406;2023-06-22T12:51:31;5.30;;;4.40;;
33814;SDS011;20121;51.910;8.406;2023-06-22T12:53:57;4.53;;;4.03;;
33814;SDS011;20121;51.910;8.406;2023-06-22T12:56:23;4.43;;;3.30;;
33814;SDS011;20121;51.910;8.406;2023-06-22T12:58:48;4.20;;;3.50;;
33814;SDS011;20121;51.910;8.406;2023-06-22T13:01:14;5.73;;;3.80;;
33814;SDS011;20121;51.910;8.406;2023-06-22T13:03:41;6.60;;;3.80;;
33814;SDS011;20121;51.910;8.406;2023-06-22T13:06:07;6.90;;;5.03;;
33814;SDS011;20121;51.910;8.406;2023-06-22T13:08:32;5.10;;;4.17;;
33814;SDS011;20121;51.910;8.406;2023-06-22T13:10:58;4.83;;;4.33;;
33814;SDS011;20121;51.910;8.406;2023-06-22T13:13:25;5.73;;;4.43;;
33814;SDS011;20121;51.910;8.406;2023-06-22T13:15:52;4.85;;;3.15;;
33814;SDS011;20121;51.910;8.406;2023-06-22T13:18:18;7.63;;;4.88;;
33814;SDS011;20121;51.910;8.406;2023-06-22T13:20:44;6.50;;;4.97;;
33814;SDS011;20121;51.910;8.406;2023-06-22T13:23:10;6.23;;;4.83;;
33814;SDS011;20121;51.910;8.406;2023-06-22T13:25:36;5.93;;;4.80;;
33814;SDS011;20121;51.910;8.406;2023-06-22T13:28:02;5.20;;;4.20;;
33814;SDS011;20121;51.910;8.406;2023-06-22T13:30:28;5.37;;;4.80;;
33814;SDS011;20121;51.910;8.406;2023-06-22T13:32:54;4.23;;;3.80;;
33814;SDS011;20121;51.910;8.406;2023-06-22T13:35:19;5.07;;;4.57;;
33814;SDS011;20121;51.910;8.406;2023-06-22T13:37:45;8.30;;;5.27;;
33814;SDS011;20121;51.910;8.406;2023-06-22T13:40:11;4.87;;;3.87;;
33814;SDS011;20121;51.910;8.406;2023-06-22T13:42:36;5.77;;;4.17;;
33814;SDS011;20121;51.910;8.406;2023-06-22T13:45:02;8.80;;;5.13;;
33814;SDS011;20121;51.910;8.406;2023-06-22T13:47:29;4.38;;;3.97;;
33814;SDS011;20121;51.910;8.406;2023-06-22T13:49:55;6.43;;;5.75;;
33814;SDS011;20121;51.910;8.406;2023-06-22T13:52:21;5.47;;;4.78;;
33814;SDS011;20121;51.910;8.406;2023-06-22T13:54:47;5.33;;;4.83;;
33814;SDS011;20121;51.910;8.406;2023-06-22T13:57:12;5.97;;;4.80;;
33814;SDS011;20121;51.910;8.406;2023-06-22T13:59:38;7.20;;;5.47;;
33814;SDS011;20121;51.910;8.406;2023-06-22T14:02:03;10.10;;;6.83;;
33814;SDS011;20121;51.910;8.406;2023-06-22T14:04:29;11.90;;;7.20;;
33814;SDS011;20121;51.910;8.406;2023-06-22T14:06:55;14.93;;;5.53;;
33814;SDS011;20121;51.910;8.406;2023-06-22T14:09:21;8.70;;;6.80;;
33814;SDS011;20121;51.910;8.406;2023-06-22T14:11:46;6.67;;;5.60;;
33814;SDS011;20121;51.910;8.406;2023-06-22T14:14:12;7.50;;;5.57;;
33814;SDS011;20121;51.910;8.406;2023-06-22T14:16:38;6.63;;;5.83;;
33814;SDS011;20121;51.910;8.406;2023-06-22T14:19:03;7.83;;;4.67;;
33814;SDS011;20121;51.910;8.406;2023-06-22T14:21:29;6.43;;;4.40;;
33814;SDS011;20121;51.910;8.406;2023-06-22T14:23:54;5.40;;;3.43;;
33814;SDS011;20121;51.910;8.406;2023-06-22T14:26:20;12.77;;;3.30;;
33814;SDS011;20121;51.910;8.406;2023-06-22T14:28:47;8.27;;;5.20;;
33814;SDS011;20121;51.910;8.406;2023-06-22T14:31:15;5.55;;;4.70;;
33814;SDS011;20121;51.910;8.406;2023-06-22T14:33:43;6.25;;;5.18;;
33814;SDS011;20121;51.910;8.406;2023-06-22T14:36:12;10.13;;;6.43;;
33814;SDS011;20121;51.910;8.406;2023-06-22T14:38:38;7.82;;;5.70;;
33814;SDS011;20121;51.910;8.406;2023-06-22T14:41:04;8.00;;;5.70;;
33814;SDS011;20121;51.910;8.406;2023-06-22T14:43:30;12.13;;;6.28;;
33814;SDS011;20121;51.910;8.406;2023-06-22T14:45:56;10.43;;;5.83;;
33814;SDS011;20121;51.910;8.406;2023-06-22T14:48:22;10.70;;;6.00;;